sensor_id;sensor_type;location;lat;lon;timestamp;temperature;humidity
36292;DHT22;22327;51.208;6.418;2023-05-24T00:01:42;12.10;88.40
36292;DHT22;22327;51.208;6.418;2023-05-24T00:04:43;12.10;89.20
36292;DHT22;22327;51.208;6.418;2023-05-24T00:07:44;12.00;89.30
36292;DHT22;22327;51.208;6.418;2023-05-24T00:10:45;12.00;89.60
36292;DHT22;22327;51.208;6.418;2023-05-24T00:13:45;12.00;90.30
36292;DHT22;22327;51.208;6.418;2023-05-24T00:16:46;11.90;89.90
36292;DHT22;22327;51.208;6.418;2023-05-24T00:19:46;11.90;90.10
36292;DHT22;22327;51.208;6.418;2023-05-24T00:22:47;11.90;90.20
36292;DHT22;22327;51.208;6.418;2023-05-24T00:25:48;11.90;90.30
36292;DHT22;22327;51.208;6.418;2023-05-24T00:28:48;11.80;90.50
36292;DHT22;22327;51.208;6.418;2023-05-24T00:31:48;11.80;90.60
36292;DHT22;22327;51.208;6.418;2023-05-24T00:34:49;11.70;90.70
36292;DHT22;22327;51.208;6.418;2023-05-24T00:37:50;11.70;91.00
36292;DHT22;22327;51.208;6.418;2023-05-24T00:40:50;11.60;91.20
36292;DHT22;22327;51.208;6.418;2023-05-24T00:43:51;11.60;91.30
36292;DHT22;22327;51.208;6.418;2023-05-24T00:46:51;11.60;91.50
36292;DHT22;22327;51.208;6.418;2023-05-24T00:49:52;11.60;91.70
36292;DHT22;22327;51.208;6.418;2023-05-24T00:52:53;11.50;91.90
36292;DHT22;22327;51.208;6.418;2023-05-24T00:55:54;11.50;92.00
36292;DHT22;22327;51.208;6.418;2023-05-24T00:58:55;11.50;92.10
36292;DHT22;22327;51.208;6.418;2023-05-24T01:01:55;11.50;92.20
36292;DHT22;22327;51.208;6.418;2023-05-24T01:04:56;11.50;92.30
36292;DHT22;22327;51.208;6.418;2023-05-24T01:08:14;11.50;92.40
36292;DHT22;22327;51.208;6.418;2023-05-24T01:11:28;11.40;92.50
36292;DHT22;22327;51.208;6.418;2023-05-24T01:14:48;11.40;92.50
36292;DHT22;22327;51.208;6.418;2023-05-24T01:18:04;11.40;93.00
36292;DHT22;22327;51.208;6.418;2023-05-24T01:24:58;11.30;92.80
36292;DHT22;22327;51.208;6.418;2023-05-24T01:28:02;11.40;92.70
36292;DHT22;22327;51.208;6.418;2023-05-24T01:31:04;11.30;92.50
36292;DHT22;22327;51.208;6.418;2023-05-24T01:34:05;11.40;92.50
36292;DHT22;22327;51.208;6.418;2023-05-24T01:37:06;11.30;92.50
36292;DHT22;22327;51.208;6.418;2023-05-24T01:40:07;11.30;92.70
36292;DHT22;22327;51.208;6.418;2023-05-24T01:43:18;11.30;92.70
36292;DHT22;22327;51.208;6.418;2023-05-24T01:46:34;11.20;92.70
36292;DHT22;22327;51.208;6.418;2023-05-24T01:49:42;11.20;92.80
36292;DHT22;22327;51.208;6.418;2023-05-24T01:52:49;11.10;92.70
36292;DHT22;22327;51.208;6.418;2023-05-24T01:55:52;11.10;93.00
36292;DHT22;22327;51.208;6.418;2023-05-24T01:58:55;11.00;93.00
36292;DHT22;22327;51.208;6.418;2023-05-24T02:01:57;10.90;93.30
36292;DHT22;22327;51.208;6.418;2023-05-24T02:04:57;10.90;93.50
36292;DHT22;22327;51.208;6.418;2023-05-24T02:07:58;10.90;93.70
36292;DHT22;22327;51.208;6.418;2023-05-24T02:10:59;10.80;94.00
36292;DHT22;22327;51.208;6.418;2023-05-24T02:13:59;10.80;94.00
36292;DHT22;22327;51.208;6.418;2023-05-24T02:17:00;10.80;93.90
36292;DHT22;22327;51.208;6.418;2023-05-24T02:20:02;10.80;93.90
36292;DHT22;22327;51.208;6.418;2023-05-24T02:23:03;10.70;93.80
36292;DHT22;22327;51.208;6.418;2023-05-24T02:26:04;10.70;93.90
36292;DHT22;22327;51.208;6.418;2023-05-24T02:29:04;10.70;93.80
36292;DHT22;22327;51.208;6.418;2023-05-24T02:32:05;10.50;94.00
36292;DHT22;22327;51.208;6.418;2023-05-24T02:35:06;10.40;94.20
36292;DHT22;22327;51.208;6.418;2023-05-24T02:38:07;10.40;94.80
36292;DHT22;22327;51.208;6.418;2023-05-24T02:41:09;10.40;95.00
36292;DHT22;22327;51.208;6.418;2023-05-24T02:44:11;10.40;95.20
36292;DHT22;22327;51.208;6.418;2023-05-24T02:47:11;10.40;95.00
36292;DHT22;22327;51.208;6.418;2023-05-24T02:50:12;10.30;95.00
36292;DHT22;22327;51.208;6.418;2023-05-24T02:53:12;10.40;95.00
36292;DHT22;22327;51.208;6.418;2023-05-24T02:56:13;10.30;95.20
36292;DHT22;22327;51.208;6.418;2023-05-24T02:59:16;10.30;95.30
36292;DHT22;22327;51.208;6.418;2023-05-24T03:02:16;10.30;95.20
36292;DHT22;22327;51.208;6.418;2023-05-24T03:05:18;10.20;95.20
36292;DHT22;22327;51.208;6.418;2023-05-24T03:08:19;10.20;95.60
36292;DHT22;22327;51.208;6.418;2023-05-24T03:11:19;10.20;95.80
36292;DHT22;22327;51.208;6.418;2023-05-24T03:14:21;10.20;95.80
36292;DHT22;22327;51.208;6.418;2023-05-24T03:17:23;10.20;95.90
36292;DHT22;22327;51.208;6.418;2023-05-24T03:20:24;10.20;95.80
36292;DHT22;22327;51.208;6.418;2023-05-24T03:23:25;10.10;95.80
36292;DHT22;22327;51.208;6.418;2023-05-24T03:26:25;10.10;96.10
36292;DHT22;22327;51.208;6.418;2023-05-24T03:29:26;10.10;96.40
36292;DHT22;22327;51.208;6.418;2023-05-24T03:32:26;10.10;96.30
36292;DHT22;22327;51.208;6.418;2023-05-24T03:35:27;10.10;96.40
36292;DHT22;22327;51.208;6.418;2023-05-24T03:38:27;10.10;96.50
36292;DHT22;22327;51.208;6.418;2023-05-24T03:41:28;10.20;96.50
36292;DHT22;22327;51.208;6.418;2023-05-24T03:44:28;10.10;96.50
36292;DHT22;22327;51.208;6.418;2023-05-24T03:47:29;10.20;96.90
36292;DHT22;22327;51.208;6.418;2023-05-24T03:50:29;10.20;96.70
36292;DHT22;22327;51.208;6.418;2023-05-24T03:53:30;10.20;96.80
36292;DHT22;22327;51.208;6.418;2023-05-24T03:56:31;10.30;97.00
36292;DHT22;22327;51.208;6.418;2023-05-24T03:59:32;10.40;97.20
36292;DHT22;22327;51.208;6.418;2023-05-24T04:02:32;10.60;97.30
36292;DHT22;22327;51.208;6.418;2023-05-24T04:05:34;10.80;97.60
36292;DHT22;22327;51.208;6.418;2023-05-24T04:08:34;11.20;97.90
36292;DHT22;22327;51.208;6.418;2023-05-24T04:11:35;11.50;97.40
36292;DHT22;22327;51.208;6.418;2023-05-24T04:14:36;11.90;96.80
36292;DHT22;22327;51.208;6.418;2023-05-24T04:17:36;12.30;96.70
36292;DHT22;22327;51.208;6.418;2023-05-24T04:20:37;12.80;96.20
36292;DHT22;22327;51.208;6.418;2023-05-24T04:23:38;13.30;95.10
36292;DHT22;22327;51.208;6.418;2023-05-24T04:26:38;13.70;94.50
36292;DHT22;22327;51.208;6.418;2023-05-24T04:29:40;14.30;93.50
36292;DHT22;22327;51.208;6.418;2023-05-24T04:32:42;14.80;92.30
36292;DHT22;22327;51.208;6.418;2023-05-24T04:35:45;15.20;91.30
36292;DHT22;22327;51.208;6.418;2023-05-24T04:38:47;15.60;90.80
36292;DHT22;22327;51.208;6.418;2023-05-24T04:41:47;16.20;89.90
36292;DHT22;22327;51.208;6.418;2023-05-24T04:44:52;16.70;88.10
36292;DHT22;22327;51.208;6.418;2023-05-24T04:47:53;17.30;86.00
36292;DHT22;22327;51.208;6.418;2023-05-24T04:50:54;17.80;82.90
36292;DHT22;22327;51.208;6.418;2023-05-24T04:53:55;18.40;80.50
36292;DHT22;22327;51.208;6.418;2023-05-24T04:56:55;18.60;76.90
36292;DHT22;22327;51.208;6.418;2023-05-24T04:59:56;18.50;76.00
36292;DHT22;22327;51.208;6.418;2023-05-24T05:02:56;18.20;75.70
36292;DHT22;22327;51.208;6.418;2023-05-24T05:05:57;18.00;77.50
36292;DHT22;22327;51.208;6.418;2023-05-24T05:08:59;18.00;76.80
36292;DHT22;22327;51.208;6.418;2023-05-24T05:11:59;18.20;76.70
36292;DHT22;22327;51.208;6.418;2023-05-24T05:15:00;18.50;74.90
36292;DHT22;22327;51.208;6.418;2023-05-24T05:18:00;18.70;74.50
36292;DHT22;22327;51.208;6.418;2023-05-24T05:21:00;18.90;72.40
36292;DHT22;22327;51.208;6.418;2023-05-24T05:24:02;18.90;73.00
36292;DHT22;22327;51.208;6.418;2023-05-24T05:27:03;18.70;73.20
36292;DHT22;22327;51.208;6.418;2023-05-24T05:30:04;18.40;73.30
36292;DHT22;22327;51.208;6.418;2023-05-24T05:33:05;18.10;73.30
36292;DHT22;22327;51.208;6.418;2023-05-24T05:36:06;17.70;74.10
36292;DHT22;22327;51.208;6.418;2023-05-24T05:39:07;17.40;75.90
36292;DHT22;22327;51.208;6.418;2023-05-24T05:42:10;17.20;76.60
36292;DHT22;22327;51.208;6.418;2023-05-24T05:45:10;17.00;77.70
36292;DHT22;22327;51.208;6.418;2023-05-24T05:48:11;16.80;78.80
36292;DHT22;22327;51.208;6.418;2023-05-24T05:51:12;16.70;79.40
36292;DHT22;22327;51.208;6.418;2023-05-24T05:54:12;16.60;79.60
36292;DHT22;22327;51.208;6.418;2023-05-24T05:57:17;16.50;80.20
36292;DHT22;22327;51.208;6.418;2023-05-24T06:00:23;16.40;81.20
36292;DHT22;22327;51.208;6.418;2023-05-24T06:03:24;16.40;81.70
36292;DHT22;22327;51.208;6.418;2023-05-24T06:06:24;16.30;82.20
36292;DHT22;22327;51.208;6.418;2023-05-24T06:09:25;16.30;82.50
36292;DHT22;22327;51.208;6.418;2023-05-24T06:12:25;16.10;83.00
36292;DHT22;22327;51.208;6.418;2023-05-24T06:15:26;16.20;84.90
36292;DHT22;22327;51.208;6.418;2023-05-24T06:18:26;16.50;84.90
36292;DHT22;22327;51.208;6.418;2023-05-24T06:21:29;16.90;83.50
36292;DHT22;22327;51.208;6.418;2023-05-24T06:24:31;17.30;82.60
36292;DHT22;22327;51.208;6.418;2023-05-24T06:27:33;17.90;81.00
36292;DHT22;22327;51.208;6.418;2023-05-24T06:30:34;18.50;78.60
36292;DHT22;22327;51.208;6.418;2023-05-24T06:33:35;19.10;76.20
36292;DHT22;22327;51.208;6.418;2023-05-24T06:36:35;19.90;77.10
36292;DHT22;22327;51.208;6.418;2023-05-24T06:39:40;20.80;70.20
36292;DHT22;22327;51.208;6.418;2023-05-24T06:42:41;21.60;68.60
36292;DHT22;22327;51.208;6.418;2023-05-24T06:45:42;22.20;65.60
36292;DHT22;22327;51.208;6.418;2023-05-24T06:48:42;22.60;63.10
36292;DHT22;22327;51.208;6.418;2023-05-24T06:51:43;22.90;63.50
36292;DHT22;22327;51.208;6.418;2023-05-24T06:54:45;23.20;59.20
36292;DHT22;22327;51.208;6.418;2023-05-24T06:57:45;23.00;59.50
36292;DHT22;22327;51.208;6.418;2023-05-24T07:00:46;22.80;59.60
36292;DHT22;22327;51.208;6.418;2023-05-24T07:03:47;22.50;59.40
36292;DHT22;22327;51.208;6.418;2023-05-24T07:06:47;22.40;60.30
36292;DHT22;22327;51.208;6.418;2023-05-24T07:09:48;22.60;61.10
36292;DHT22;22327;51.208;6.418;2023-05-24T07:12:48;23.00;61.00
36292;DHT22;22327;51.208;6.418;2023-05-24T07:15:49;23.50;60.20
36292;DHT22;22327;51.208;6.418;2023-05-24T07:18:49;24.50;57.50
36292;DHT22;22327;51.208;6.418;2023-05-24T07:21:50;25.00;54.10
36292;DHT22;22327;51.208;6.418;2023-05-24T07:24:51;25.80;55.00
36292;DHT22;22327;51.208;6.418;2023-05-24T07:27:52;26.40;52.00
36292;DHT22;22327;51.208;6.418;2023-05-24T07:30:52;26.50;49.60
36292;DHT22;22327;51.208;6.418;2023-05-24T07:33:53;26.00;49.30
36292;DHT22;22327;51.208;6.418;2023-05-24T07:36:53;25.40;50.20
36292;DHT22;22327;51.208;6.418;2023-05-24T07:39:54;24.90;50.60
36292;DHT22;22327;51.208;6.418;2023-05-24T07:42:54;24.50;51.30
36292;DHT22;22327;51.208;6.418;2023-05-24T07:45:55;24.10;51.90
36292;DHT22;22327;51.208;6.418;2023-05-24T07:48:56;23.50;52.40
36292;DHT22;22327;51.208;6.418;2023-05-24T07:51:56;23.10;53.80
36292;DHT22;22327;51.208;6.418;2023-05-24T07:54:58;22.90;53.90
36292;DHT22;22327;51.208;6.418;2023-05-24T07:57:59;22.50;54.70
36292;DHT22;22327;51.208;6.418;2023-05-24T08:00:59;22.20;55.90
36292;DHT22;22327;51.208;6.418;2023-05-24T08:04:01;21.90;55.80
36292;DHT22;22327;51.208;6.418;2023-05-24T08:07:03;21.50;57.20
36292;DHT22;22327;51.208;6.418;2023-05-24T08:10:05;21.70;58.30
36292;DHT22;22327;51.208;6.418;2023-05-24T08:13:06;22.00;57.40
36292;DHT22;22327;51.208;6.418;2023-05-24T08:16:06;22.60;57.90
36292;DHT22;22327;51.208;6.418;2023-05-24T08:19:07;23.60;54.80
36292;DHT22;22327;51.208;6.418;2023-05-24T08:22:07;24.10;52.00
36292;DHT22;22327;51.208;6.418;2023-05-24T08:25:09;23.90;51.30
36292;DHT22;22327;51.208;6.418;2023-05-24T08:28:10;23.50;51.10
36292;DHT22;22327;51.208;6.418;2023-05-24T08:31:11;23.00;53.40
36292;DHT22;22327;51.208;6.418;2023-05-24T08:34:11;23.10;52.50
36292;DHT22;22327;51.208;6.418;2023-05-24T08:37:12;23.30;52.80
36292;DHT22;22327;51.208;6.418;2023-05-24T08:40:14;23.90;50.40
36292;DHT22;22327;51.208;6.418;2023-05-24T08:43:15;23.80;49.10
36292;DHT22;22327;51.208;6.418;2023-05-24T08:46:16;23.20;49.50
36292;DHT22;22327;51.208;6.418;2023-05-24T08:49:17;22.40;50.60
36292;DHT22;22327;51.208;6.418;2023-05-24T08:52:18;21.90;52.30
36292;DHT22;22327;51.208;6.418;2023-05-24T08:55:20;21.30;53.30
36292;DHT22;22327;51.208;6.418;2023-05-24T08:58:21;20.80;54.80
36292;DHT22;22327;51.208;6.418;2023-05-24T09:01:23;20.40;56.50
36292;DHT22;22327;51.208;6.418;2023-05-24T09:04:26;20.10;57.40
36292;DHT22;22327;51.208;6.418;2023-05-24T09:07:26;20.00;57.90
36292;DHT22;22327;51.208;6.418;2023-05-24T09:10:28;20.10;58.20
36292;DHT22;22327;51.208;6.418;2023-05-24T09:13:30;20.30;57.60
36292;DHT22;22327;51.208;6.418;2023-05-24T09:16:31;20.50;57.10
36292;DHT22;22327;51.208;6.418;2023-05-24T09:19:31;20.60;56.50
36292;DHT22;22327;51.208;6.418;2023-05-24T09:22:33;20.60;57.00
36292;DHT22;22327;51.208;6.418;2023-05-24T09:25:34;20.40;56.70
36292;DHT22;22327;51.208;6.418;2023-05-24T09:28:36;20.30;57.30
36292;DHT22;22327;51.208;6.418;2023-05-24T09:31:38;20.10;57.80
36292;DHT22;22327;51.208;6.418;2023-05-24T09:34:42;20.10;58.80
36292;DHT22;22327;51.208;6.418;2023-05-24T09:37:45;20.50;59.30
36292;DHT22;22327;51.208;6.418;2023-05-24T09:40:46;21.30;58.30
36292;DHT22;22327;51.208;6.418;2023-05-24T09:43:48;22.20;56.00
36292;DHT22;22327;51.208;6.418;2023-05-24T09:46:49;23.00;54.40
36292;DHT22;22327;51.208;6.418;2023-05-24T09:49:51;23.30;52.30
36292;DHT22;22327;51.208;6.418;2023-05-24T09:52:51;23.30;51.90
36292;DHT22;22327;51.208;6.418;2023-05-24T09:55:54;22.80;51.40
36292;DHT22;22327;51.208;6.418;2023-05-24T09:58:55;22.40;51.80
36292;DHT22;22327;51.208;6.418;2023-05-24T10:02:06;21.80;51.60
36292;DHT22;22327;51.208;6.418;2023-05-24T10:05:10;21.30;53.40
36292;DHT22;22327;51.208;6.418;2023-05-24T10:08:11;20.90;53.90
36292;DHT22;22327;51.208;6.418;2023-05-24T10:11:13;20.40;55.10
36292;DHT22;22327;51.208;6.418;2023-05-24T10:14:14;20.10;56.20
36292;DHT22;22327;51.208;6.418;2023-05-24T10:17:15;20.00;57.30
36292;DHT22;22327;51.208;6.418;2023-05-24T10:20:16;19.90;57.70
36292;DHT22;22327;51.208;6.418;2023-05-24T10:23:19;19.90;57.70
36292;DHT22;22327;51.208;6.418;2023-05-24T10:26:23;20.20;58.20
36292;DHT22;22327;51.208;6.418;2023-05-24T10:29:42;20.50;57.20
36292;DHT22;22327;51.208;6.418;2023-05-24T10:32:44;20.90;57.30
36292;DHT22;22327;51.208;6.418;2023-05-24T10:35:47;21.10;56.60
36292;DHT22;22327;51.208;6.418;2023-05-24T10:38:49;21.30;55.40
36292;DHT22;22327;51.208;6.418;2023-05-24T10:41:49;21.50;55.80
36292;DHT22;22327;51.208;6.418;2023-05-24T10:44:50;21.80;54.90
36292;DHT22;22327;51.208;6.418;2023-05-24T10:47:51;22.00;55.10
36292;DHT22;22327;51.208;6.418;2023-05-24T10:50:52;22.30;54.00
36292;DHT22;22327;51.208;6.418;2023-05-24T10:53:56;22.70;53.40
36292;DHT22;22327;51.208;6.418;2023-05-24T10:57:00;23.00;52.90
36292;DHT22;22327;51.208;6.418;2023-05-24T11:03:24;23.30;50.00
36292;DHT22;22327;51.208;6.418;2023-05-24T11:07:07;23.30;50.00
36292;DHT22;22327;51.208;6.418;2023-05-24T11:10:29;23.10;49.80
36292;DHT22;22327;51.208;6.418;2023-05-24T11:13:30;23.00;48.60
36292;DHT22;22327;51.208;6.418;2023-05-24T11:16:38;22.80;49.50
36292;DHT22;22327;51.208;6.418;2023-05-24T11:19:46;22.70;49.80
36292;DHT22;22327;51.208;6.418;2023-05-24T11:22:47;22.70;49.90
36292;DHT22;22327;51.208;6.418;2023-05-24T11:25:47;22.70;49.60
36292;DHT22;22327;51.208;6.418;2023-05-24T11:28:49;23.00;50.90
36292;DHT22;22327;51.208;6.418;2023-05-24T11:31:54;23.20;49.00
36292;DHT22;22327;51.208;6.418;2023-05-24T11:34:56;23.20;48.20
36292;DHT22;22327;51.208;6.418;2023-05-24T11:37:57;23.20;47.90
36292;DHT22;22327;51.208;6.418;2023-05-24T11:40:57;23.20;47.50
36292;DHT22;22327;51.208;6.418;2023-05-24T11:43:58;23.20;46.90
36292;DHT22;22327;51.208;6.418;2023-05-24T11:47:03;23.20;47.50
36292;DHT22;22327;51.208;6.418;2023-05-24T11:50:04;23.10;46.30
36292;DHT22;22327;51.208;6.418;2023-05-24T11:53:09;23.00;47.80
36292;DHT22;22327;51.208;6.418;2023-05-24T11:56:10;22.90;48.20
36292;DHT22;22327;51.208;6.418;2023-05-24T11:59:15;22.80;47.90
36292;DHT22;22327;51.208;6.418;2023-05-24T12:02:17;22.80;47.50
36292;DHT22;22327;51.208;6.418;2023-05-24T12:05:20;22.60;46.10
36292;DHT22;22327;51.208;6.418;2023-05-24T12:08:22;22.20;47.20
36292;DHT22;22327;51.208;6.418;2023-05-24T12:11:22;22.00;47.60
36292;DHT22;22327;51.208;6.418;2023-05-24T12:14:26;21.80;48.00
36292;DHT22;22327;51.208;6.418;2023-05-24T12:17:27;21.50;48.80
36292;DHT22;22327;51.208;6.418;2023-05-24T12:20:28;21.20;50.10
36292;DHT22;22327;51.208;6.418;2023-05-24T12:23:29;21.10;50.10
36292;DHT22;22327;51.208;6.418;2023-05-24T12:26:39;21.10;50.50
36292;DHT22;22327;51.208;6.418;2023-05-24T12:29:40;21.00;50.80
36292;DHT22;22327;51.208;6.418;2023-05-24T12:32:41;21.10;51.30
36292;DHT22;22327;51.208;6.418;2023-05-24T12:35:42;21.10;50.00
36292;DHT22;22327;51.208;6.418;2023-05-24T12:38:42;21.10;51.20
36292;DHT22;22327;51.208;6.418;2023-05-24T12:41:43;20.90;51.90
36292;DHT22;22327;51.208;6.418;2023-05-24T12:44:44;20.80;52.20
36292;DHT22;22327;51.208;6.418;2023-05-24T12:47:45;20.70;52.40
36292;DHT22;22327;51.208;6.418;2023-05-24T12:50:45;20.50;52.50
36292;DHT22;22327;51.208;6.418;2023-05-24T12:53:46;20.40;53.30
36292;DHT22;22327;51.208;6.418;2023-05-24T12:56:46;20.20;54.00
36292;DHT22;22327;51.208;6.418;2023-05-24T12:59:47;20.00;54.40
36292;DHT22;22327;51.208;6.418;2023-05-24T13:02:48;20.00;54.80
36292;DHT22;22327;51.208;6.418;2023-05-24T13:05:48;19.90;53.70
36292;DHT22;22327;51.208;6.418;2023-05-24T13:08:49;19.80;54.40
36292;DHT22;22327;51.208;6.418;2023-05-24T13:11:50;19.80;54.70
36292;DHT22;22327;51.208;6.418;2023-05-24T13:14:51;20.00;55.10
36292;DHT22;22327;51.208;6.418;2023-05-24T13:17:52;20.30;54.40
36292;DHT22;22327;51.208;6.418;2023-05-24T13:20:53;20.60;54.30
36292;DHT22;22327;51.208;6.418;2023-05-24T13:23:53;20.70;53.80
36292;DHT22;22327;51.208;6.418;2023-05-24T13:26:54;20.70;52.70
36292;DHT22;22327;51.208;6.418;2023-05-24T13:29:54;20.80;53.10
36292;DHT22;22327;51.208;6.418;2023-05-24T13:32:55;20.70;52.80
36292;DHT22;22327;51.208;6.418;2023-05-24T13:35:57;20.60;53.90
36292;DHT22;22327;51.208;6.418;2023-05-24T13:38:59;20.60;54.30
36292;DHT22;22327;51.208;6.418;2023-05-24T13:42:00;20.70;54.60
36292;DHT22;22327;51.208;6.418;2023-05-24T13:45:01;21.10;54.70
36292;DHT22;22327;51.208;6.418;2023-05-24T13:48:03;21.20;53.60
36292;DHT22;22327;51.208;6.418;2023-05-24T13:51:03;21.30;53.20
36292;DHT22;22327;51.208;6.418;2023-05-24T13:54:05;21.30;53.20
36292;DHT22;22327;51.208;6.418;2023-05-24T13:57:06;21.30;52.10
36292;DHT22;22327;51.208;6.418;2023-05-24T14:00:07;21.40;52.50
36292;DHT22;22327;51.208;6.418;2023-05-24T14:03:08;21.40;52.20
36292;DHT22;22327;51.208;6.418;2023-05-24T14:06:09;21.50;52.00
36292;DHT22;22327;51.208;6.418;2023-05-24T14:09:09;21.60;52.00
36292;DHT22;22327;51.208;6.418;2023-05-24T14:12:10;21.60;52.30
36292;DHT22;22327;51.208;6.418;2023-05-24T14:15:11;21.70;51.20
36292;DHT22;22327;51.208;6.418;2023-05-24T14:18:12;21.70;51.30
36292;DHT22;22327;51.208;6.418;2023-05-24T14:21:13;21.50;51.60
36292;DHT22;22327;51.208;6.418;2023-05-24T14:24:14;21.50;51.80
36292;DHT22;22327;51.208;6.418;2023-05-24T14:27:15;21.40;52.00
36292;DHT22;22327;51.208;6.418;2023-05-24T14:30:15;21.30;52.20
36292;DHT22;22327;51.208;6.418;2023-05-24T14:33:16;21.30;53.00
36292;DHT22;22327;51.208;6.418;2023-05-24T14:36:16;21.20;52.00
36292;DHT22;22327;51.208;6.418;2023-05-24T14:39:17;21.10;52.30
36292;DHT22;22327;51.208;6.418;2023-05-24T14:42:17;21.10;53.10
36292;DHT22;22327;51.208;6.418;2023-05-24T14:45:18;21.20;52.90
36292;DHT22;22327;51.208;6.418;2023-05-24T14:48:18;21.20;51.90
36292;DHT22;22327;51.208;6.418;2023-05-24T14:51:19;21.20;52.40
36292;DHT22;22327;51.208;6.418;2023-05-24T14:54:19;21.20;52.90
36292;DHT22;22327;51.208;6.418;2023-05-24T14:57:20;21.40;51.90
36292;DHT22;22327;51.208;6.418;2023-05-24T15:00:21;21.40;52.10
36292;DHT22;22327;51.208;6.418;2023-05-24T15:03:22;21.40;52.30
36292;DHT22;22327;51.208;6.418;2023-05-24T15:06:23;21.50;52.70
36292;DHT22;22327;51.208;6.418;2023-05-24T15:09:23;21.40;52.50
36292;DHT22;22327;51.208;6.418;2023-05-24T15:12:24;21.20;52.70
36292;DHT22;22327;51.208;6.418;2023-05-24T15:15:24;21.10;52.60
36292;DHT22;22327;51.208;6.418;2023-05-24T15:18:29;21.00;53.40
36292;DHT22;22327;51.208;6.418;2023-05-24T15:21:30;21.00;53.70
36292;DHT22;22327;51.208;6.418;2023-05-24T15:24:31;21.00;53.10
36292;DHT22;22327;51.208;6.418;2023-05-24T15:27:31;21.00;53.10
36292;DHT22;22327;51.208;6.418;2023-05-24T15:30:32;20.90;53.20
36292;DHT22;22327;51.208;6.418;2023-05-24T15:33:34;20.90;53.30
36292;DHT22;22327;51.208;6.418;2023-05-24T15:36:35;20.90;53.50
36292;DHT22;22327;51.208;6.418;2023-05-24T15:39:37;21.00;53.40
36292;DHT22;22327;51.208;6.418;2023-05-24T15:42:37;21.00;53.30
36292;DHT22;22327;51.208;6.418;2023-05-24T15:45:38;21.00;53.20
36292;DHT22;22327;51.208;6.418;2023-05-24T15:48:39;21.10;53.20
36292;DHT22;22327;51.208;6.418;2023-05-24T15:51:40;21.10;52.90
36292;DHT22;22327;51.208;6.418;2023-05-24T15:54:40;21.00;53.20
36292;DHT22;22327;51.208;6.418;2023-05-24T15:57:41;21.00;54.10
36292;DHT22;22327;51.208;6.418;2023-05-24T16:00:41;21.10;54.00
36292;DHT22;22327;51.208;6.418;2023-05-24T16:03:42;21.20;53.50
36292;DHT22;22327;51.208;6.418;2023-05-24T16:06:42;21.20;53.20
36292;DHT22;22327;51.208;6.418;2023-05-24T16:09:43;21.20;53.00
36292;DHT22;22327;51.208;6.418;2023-05-24T16:12:46;21.20;53.00
36292;DHT22;22327;51.208;6.418;2023-05-24T16:15:47;21.20;53.40
36292;DHT22;22327;51.208;6.418;2023-05-24T16:18:50;21.30;52.60
36292;DHT22;22327;51.208;6.418;2023-05-24T16:21:51;21.30;52.50
36292;DHT22;22327;51.208;6.418;2023-05-24T16:24:51;21.20;53.00
36292;DHT22;22327;51.208;6.418;2023-05-24T16:27:52;21.20;53.20
36292;DHT22;22327;51.208;6.418;2023-05-24T16:30:55;21.20;53.70
36292;DHT22;22327;51.208;6.418;2023-05-24T16:33:56;21.10;53.70
36292;DHT22;22327;51.208;6.418;2023-05-24T16:36:58;21.10;54.20
36292;DHT22;22327;51.208;6.418;2023-05-24T16:39:58;21.10;54.60
36292;DHT22;22327;51.208;6.418;2023-05-24T16:42:59;21.10;54.40
36292;DHT22;22327;51.208;6.418;2023-05-24T16:46:00;21.20;54.30
36292;DHT22;22327;51.208;6.418;2023-05-24T16:49:02;21.20;54.40
36292;DHT22;22327;51.208;6.418;2023-05-24T16:52:02;21.10;54.60
36292;DHT22;22327;51.208;6.418;2023-05-24T16:55:03;20.90;54.30
36292;DHT22;22327;51.208;6.418;2023-05-24T16:58:04;20.70;55.00
36292;DHT22;22327;51.208;6.418;2023-05-24T17:01:05;20.60;55.10
36292;DHT22;22327;51.208;6.418;2023-05-24T17:04:05;20.40;55.50
36292;DHT22;22327;51.208;6.418;2023-05-24T17:07:06;20.30;55.60
36292;DHT22;22327;51.208;6.418;2023-05-24T17:10:07;20.30;56.50
36292;DHT22;22327;51.208;6.418;2023-05-24T17:13:07;20.30;56.10
36292;DHT22;22327;51.208;6.418;2023-05-24T17:16:08;20.30;56.50
36292;DHT22;22327;51.208;6.418;2023-05-24T17:19:10;20.20;56.30
36292;DHT22;22327;51.208;6.418;2023-05-24T17:22:13;20.10;56.00
36292;DHT22;22327;51.208;6.418;2023-05-24T17:25:13;20.00;56.40
36292;DHT22;22327;51.208;6.418;2023-05-24T17:28:14;19.80;57.30
36292;DHT22;22327;51.208;6.418;2023-05-24T17:31:14;19.80;57.90
36292;DHT22;22327;51.208;6.418;2023-05-24T17:34:15;19.70;57.30
36292;DHT22;22327;51.208;6.418;2023-05-24T17:37:16;19.80;58.00
36292;DHT22;22327;51.208;6.418;2023-05-24T17:40:16;19.70;58.00
36292;DHT22;22327;51.208;6.418;2023-05-24T17:43:17;19.50;58.10
36292;DHT22;22327;51.208;6.418;2023-05-24T17:46:17;19.40;58.40
36292;DHT22;22327;51.208;6.418;2023-05-24T17:49:18;19.40;58.60
36292;DHT22;22327;51.208;6.418;2023-05-24T17:52:19;19.50;58.70
36292;DHT22;22327;51.208;6.418;2023-05-24T17:55:19;19.50;58.40
36292;DHT22;22327;51.208;6.418;2023-05-24T17:58:20;19.60;58.60
36292;DHT22;22327;51.208;6.418;2023-05-24T18:01:20;19.50;58.40
36292;DHT22;22327;51.208;6.418;2023-05-24T18:04:21;19.50;58.90
36292;DHT22;22327;51.208;6.418;2023-05-24T18:07:21;19.40;59.30
36292;DHT22;22327;51.208;6.418;2023-05-24T18:10:22;19.50;59.60
36292;DHT22;22327;51.208;6.418;2023-05-24T18:13:22;19.40;59.60
36292;DHT22;22327;51.208;6.418;2023-05-24T18:16:23;19.40;59.80
36292;DHT22;22327;51.208;6.418;2023-05-24T18:19:23;19.40;60.20
36292;DHT22;22327;51.208;6.418;2023-05-24T18:22:25;19.30;60.50
36292;DHT22;22327;51.208;6.418;2023-05-24T18:25:26;19.10;61.30
36292;DHT22;22327;51.208;6.418;2023-05-24T18:28:26;19.00;61.30
36292;DHT22;22327;51.208;6.418;2023-05-24T18:31:27;19.00;61.70
36292;DHT22;22327;51.208;6.418;2023-05-24T18:34:27;18.90;62.10
36292;DHT22;22327;51.208;6.418;2023-05-24T18:37:28;18.90;62.50
36292;DHT22;22327;51.208;6.418;2023-05-24T18:40:28;18.80;62.50
36292;DHT22;22327;51.208;6.418;2023-05-24T18:43:29;18.80;62.90
36292;DHT22;22327;51.208;6.418;2023-05-24T18:46:30;18.70;63.20
36292;DHT22;22327;51.208;6.418;2023-05-24T18:49:32;18.70;63.80
36292;DHT22;22327;51.208;6.418;2023-05-24T18:52:33;18.60;65.30
36292;DHT22;22327;51.208;6.418;2023-05-24T18:55:34;18.50;65.20
36292;DHT22;22327;51.208;6.418;2023-05-24T18:58:34;18.50;65.60
36292;DHT22;22327;51.208;6.418;2023-05-24T19:01:35;18.50;66.70
36292;DHT22;22327;51.208;6.418;2023-05-24T19:04:35;18.50;66.80
36292;DHT22;22327;51.208;6.418;2023-05-24T19:07:36;18.40;65.90
36292;DHT22;22327;51.208;6.418;2023-05-24T19:10:36;18.40;66.30
36292;DHT22;22327;51.208;6.418;2023-05-24T19:13:37;18.40;66.80